createdAt,value
2023-03-16T00:00:22.706Z,7
2023-03-16T00:01:22.683Z,7.1
2023-03-16T00:02:22.773Z,7
2023-03-16T00:03:22.754Z,7.1
2023-03-16T00:04:22.723Z,7.1
2023-03-16T00:06:25.550Z,7.1
2023-03-16T00:07:22.754Z,7.1
2023-03-16T00:08:22.684Z,7.1
2023-03-16T00:09:22.705Z,7.1
2023-03-16T00:10:22.692Z,7.1
2023-03-16T00:11:22.682Z,7.1
2023-03-16T00:12:22.769Z,7
2023-03-16T00:13:22.688Z,7
2023-03-16T00:14:22.763Z,7
2023-03-16T00:15:22.687Z,7
2023-03-16T00:16:22.766Z,7
2023-03-16T00:17:22.694Z,7
2023-03-16T00:18:22.721Z,7
2023-03-16T00:20:22.690Z,6.9
2023-03-16T00:21:22.687Z,6.9
2023-03-16T00:22:22.684Z,6.9
2023-03-16T00:23:22.679Z,6.9
2023-03-16T00:24:22.691Z,6.9
2023-03-16T00:25:22.689Z,6.9
2023-03-16T00:26:22.685Z,6.8
2023-03-16T00:27:22.771Z,6.6
2023-03-16T00:28:22.678Z,6.6
2023-03-16T00:29:22.704Z,6.6
2023-03-16T00:30:22.675Z,6.7
2023-03-16T00:31:22.739Z,6.7
2023-03-16T00:32:22.830Z,6.7
2023-03-16T00:33:22.679Z,6.7
2023-03-16T00:34:22.680Z,6.8
2023-03-16T00:35:22.678Z,6.9
2023-03-16T00:36:22.709Z,6.9
2023-03-16T00:37:22.709Z,6.9
2023-03-16T00:38:22.685Z,6.9
2023-03-16T00:39:22.679Z,6.9
2023-03-16T00:40:22.674Z,6.9
2023-03-16T00:42:22.680Z,6.8
2023-03-16T00:43:22.735Z,6.7
2023-03-16T00:44:22.680Z,6.3
2023-03-16T00:45:22.674Z,6.4
2023-03-16T00:46:22.767Z,6.4
2023-03-16T00:47:22.680Z,6.4
2023-03-16T00:48:22.760Z,6.4
2023-03-16T00:49:22.678Z,6.4
2023-03-16T00:50:22.673Z,6.3
2023-03-16T00:51:22.677Z,6
2023-03-16T00:52:22.675Z,5.5
2023-03-16T00:53:22.674Z,5.7
2023-03-16T00:54:22.666Z,5.7
2023-03-16T00:55:22.671Z,5.7
2023-03-16T00:56:22.681Z,5.9
2023-03-16T00:57:22.670Z,5.5
2023-03-16T00:58:22.680Z,5.3
2023-03-16T00:59:22.676Z,5.3
2023-03-16T01:00:22.668Z,5.2
2023-03-16T01:01:22.760Z,5.1
2023-03-16T01:02:22.670Z,5.2
2023-03-16T01:03:22.726Z,5.4
2023-03-16T01:04:22.685Z,5.4
2023-03-16T01:05:22.667Z,5.4
2023-03-16T01:06:22.675Z,5.4
2023-03-16T01:07:22.702Z,5.4
2023-03-16T01:08:22.702Z,5.5
2023-03-16T01:09:22.676Z,5.4
2023-03-16T01:10:22.730Z,5.7
2023-03-16T01:11:22.684Z,5.8
2023-03-16T01:12:22.670Z,5.7
2023-03-16T01:13:22.694Z,5.4
2023-03-16T01:14:22.699Z,5.1
2023-03-16T01:15:22.684Z,5.2
2023-03-16T01:16:22.819Z,5
2023-03-16T01:17:22.674Z,5.2
2023-03-16T01:18:22.675Z,5.1
2023-03-16T01:19:22.677Z,5.1
2023-03-16T01:20:22.675Z,5
2023-03-16T01:21:22.673Z,5
2023-03-16T01:22:22.686Z,5.1
2023-03-16T01:23:22.667Z,5.4
2023-03-16T01:24:22.670Z,5.3
2023-03-16T01:25:22.670Z,5.1
2023-03-16T01:26:22.674Z,5
2023-03-16T01:27:22.855Z,5
2023-03-16T01:28:22.671Z,4.9
2023-03-16T01:29:22.670Z,5
2023-03-16T01:30:22.674Z,4.8
2023-03-16T01:31:23.868Z,4.9
2023-03-16T01:32:22.835Z,4.9
2023-03-16T01:33:22.671Z,5.1
2023-03-16T01:34:22.680Z,5
2023-03-16T01:35:22.872Z,5.2
2023-03-16T01:36:22.676Z,5
2023-03-16T01:37:22.696Z,4.8
2023-03-16T01:38:22.679Z,4.8
2023-03-16T01:39:22.681Z,4.7
2023-03-16T01:40:22.840Z,4.7
2023-03-16T01:41:22.730Z,4.5
2023-03-16T01:42:22.674Z,4.6
2023-03-16T01:43:22.742Z,4.7
2023-03-16T01:44:22.689Z,4.6
2023-03-16T01:45:22.700Z,4.6
2023-03-16T01:46:22.726Z,4.8
2023-03-16T01:47:22.673Z,4.8
2023-03-16T01:48:24.729Z,5
2023-03-16T01:49:22.676Z,4.8
2023-03-16T01:50:22.683Z,4.8
2023-03-16T01:51:22.673Z,4.8
2023-03-16T01:52:22.670Z,4.9
2023-03-16T01:53:22.673Z,5.2
2023-03-16T01:54:22.669Z,4.9
2023-03-16T01:55:22.669Z,5
2023-03-16T01:56:22.669Z,4.7
2023-03-16T01:57:22.713Z,4.7
2023-03-16T01:58:22.691Z,4.8
2023-03-16T01:59:22.668Z,4.7
2023-03-16T02:00:22.698Z,4.9
2023-03-16T02:01:22.743Z,5
2023-03-16T02:02:22.681Z,4.8
2023-03-16T02:03:22.711Z,4.6
2023-03-16T02:04:22.689Z,4.3
2023-03-16T02:05:22.683Z,4.4
2023-03-16T02:06:22.666Z,4.3
2023-03-16T02:07:22.725Z,4.3
2023-03-16T02:08:22.666Z,4.2
2023-03-16T02:09:22.670Z,4.5
2023-03-16T02:10:22.665Z,4.6
2023-03-16T02:11:22.672Z,4.7
2023-03-16T02:12:22.679Z,4.8
2023-03-16T02:13:22.675Z,4.8
2023-03-16T02:14:22.678Z,4.7
2023-03-16T02:15:22.686Z,4.6
2023-03-16T02:16:22.882Z,4.6
2023-03-16T02:17:22.663Z,4.8
2023-03-16T02:18:22.673Z,4.7
2023-03-16T02:19:22.663Z,4.6
2023-03-16T02:20:22.664Z,4.8
2023-03-16T02:21:22.659Z,4.6
2023-03-16T02:22:22.664Z,4.7
2023-03-16T02:23:22.691Z,4.8
2023-03-16T02:24:22.745Z,4.9
2023-03-16T02:25:22.671Z,4.8
2023-03-16T02:26:22.667Z,5.1
2023-03-16T02:27:22.690Z,5.1
2023-03-16T02:28:22.664Z,5.3
2023-03-16T02:29:22.661Z,5.1
2023-03-16T02:30:22.670Z,4.7
2023-03-16T02:31:22.739Z,4.7
2023-03-16T02:32:22.828Z,4.9
2023-03-16T02:33:22.665Z,4.6
2023-03-16T02:34:22.666Z,4.7
2023-03-16T02:35:22.657Z,4.4
2023-03-16T02:36:22.675Z,4.3
2023-03-16T02:37:22.668Z,4.5
2023-03-16T02:38:22.665Z,4.7
2023-03-16T02:39:22.691Z,4.7
2023-03-16T02:40:22.662Z,4.8
2023-03-16T02:41:22.665Z,5
2023-03-16T02:42:22.658Z,5.1
2023-03-16T02:43:22.667Z,5.1
2023-03-16T02:44:22.681Z,5.3
2023-03-16T02:45:22.665Z,5.3
2023-03-16T02:46:22.698Z,5
2023-03-16T02:47:22.770Z,5.2
2023-03-16T02:48:22.660Z,5.1
2023-03-16T02:49:22.673Z,5
2023-03-16T02:50:22.664Z,4.9
2023-03-16T02:51:22.661Z,4.8
2023-03-16T02:52:22.666Z,5
2023-03-16T02:53:22.656Z,5.2
2023-03-16T02:54:22.799Z,5.1
2023-03-16T02:55:22.797Z,5.2
2023-03-16T02:56:22.665Z,5
2023-03-16T02:57:22.666Z,5.3
2023-03-16T02:58:22.667Z,4.8
2023-03-16T02:59:22.724Z,4.8
2023-03-16T03:00:22.655Z,4.9
2023-03-16T03:01:22.656Z,4.9
2023-03-16T03:02:22.665Z,4.7
2023-03-16T03:03:22.796Z,4.9
2023-03-16T03:04:22.703Z,5.3
2023-03-16T03:05:22.693Z,5.6
2023-03-16T03:06:22.668Z,5.4
2023-03-16T03:07:22.660Z,5.1
2023-03-16T03:08:22.676Z,5
2023-03-16T03:09:22.674Z,5
2023-03-16T03:10:22.700Z,5
2023-03-16T03:11:22.667Z,5
2023-03-16T03:12:22.676Z,5.1
2023-03-16T03:13:22.786Z,5
2023-03-16T03:14:22.665Z,5.1
2023-03-16T03:15:22.659Z,5.2
2023-03-16T03:16:22.730Z,4.9
2023-03-16T03:17:22.658Z,4.7
2023-03-16T03:18:22.713Z,4.7
2023-03-16T03:19:22.657Z,4.8
2023-03-16T03:20:22.662Z,5.1
2023-03-16T03:21:22.656Z,5
2023-03-16T03:22:22.665Z,4.9
2023-03-16T03:23:22.655Z,4.6
2023-03-16T03:24:22.665Z,4.4
2023-03-16T03:25:22.729Z,4.6
2023-03-16T03:26:22.664Z,4.4
2023-03-16T03:27:22.796Z,4.4
2023-03-16T03:28:22.681Z,4.4
2023-03-16T03:29:22.652Z,4.4
2023-03-16T03:30:22.653Z,4.5
2023-03-16T03:31:22.767Z,4.4
2023-03-16T03:32:22.663Z,4.6
2023-03-16T03:33:22.658Z,4.7
2023-03-16T03:34:22.683Z,4.9
2023-03-16T03:35:22.658Z,4.7
2023-03-16T03:36:22.673Z,4.6
2023-03-16T03:37:22.682Z,4.8
2023-03-16T03:38:22.661Z,4.7
2023-03-16T03:39:22.683Z,5.1
2023-03-16T03:40:22.658Z,5.3
2023-03-16T03:41:22.675Z,5.2
2023-03-16T03:42:22.665Z,5.1
2023-03-16T03:43:22.657Z,4.7
2023-03-16T03:44:22.663Z,4.7
2023-03-16T03:45:22.658Z,4.8
2023-03-16T03:46:22.815Z,4.6
2023-03-16T03:47:22.660Z,4.8
2023-03-16T03:48:22.658Z,4.6
2023-03-16T03:49:22.686Z,4.6
2023-03-16T03:50:22.662Z,4.4
2023-03-16T03:51:22.666Z,4.3
2023-03-16T03:52:22.657Z,4.5
2023-03-16T03:53:22.656Z,4.5
2023-03-16T03:54:22.654Z,4.7
2023-03-16T03:55:22.651Z,5
2023-03-16T03:56:22.707Z,4.9
2023-03-16T03:57:22.670Z,4.8
2023-03-16T03:58:22.691Z,4.9
2023-03-16T03:59:22.652Z,5.1
2023-03-16T04:00:22.646Z,5.1
2023-03-16T04:01:22.650Z,4.9
2023-03-16T04:02:22.842Z,4.9
2023-03-16T04:03:22.717Z,4.9
2023-03-16T04:04:22.654Z,4.9
2023-03-16T04:05:22.646Z,5
2023-03-16T04:06:22.654Z,4.9
2023-03-16T04:07:22.661Z,5
2023-03-16T04:08:22.660Z,4.9
2023-03-16T04:09:22.652Z,4.7
2023-03-16T04:10:22.654Z,4.8
2023-03-16T04:11:22.649Z,4.4
2023-03-16T04:12:22.666Z,4.6
2023-03-16T04:13:22.650Z,4.6
2023-03-16T04:14:22.652Z,4.4
2023-03-16T04:15:22.646Z,4.4
2023-03-16T04:16:22.678Z,4.4
2023-03-16T04:17:22.643Z,4.7
2023-03-16T04:18:22.714Z,4.5
2023-03-16T04:19:22.665Z,4.2
2023-03-16T04:20:22.674Z,4.4
2023-03-16T04:21:22.656Z,4.4
2023-03-16T04:22:22.648Z,4.5
2023-03-16T04:23:22.658Z,4.3
2023-03-16T04:24:22.651Z,4.4
2023-03-16T04:25:22.651Z,4.7
2023-03-16T04:26:22.666Z,4.6
2023-03-16T04:27:22.642Z,4.7
2023-03-16T04:28:22.655Z,4.7
2023-03-16T04:29:22.649Z,4.7
2023-03-16T04:30:22.643Z,4.4
2023-03-16T04:31:22.762Z,4.4
2023-03-16T04:32:22.643Z,4.4
2023-03-16T04:33:22.652Z,4.8
2023-03-16T04:34:22.646Z,5.1
2023-03-16T04:35:22.664Z,5.1
2023-03-16T04:36:22.686Z,5.2
2023-03-16T04:37:22.649Z,5
2023-03-16T04:38:22.647Z,5.1
2023-03-16T04:39:22.647Z,4.9
2023-03-16T04:40:22.668Z,4.9
2023-03-16T04:41:22.641Z,4.9
2023-03-16T04:42:22.650Z,5
2023-03-16T04:43:22.669Z,5.2
2023-03-16T04:44:22.650Z,5.2
2023-03-16T04:45:22.651Z,5.3
2023-03-16T04:46:22.801Z,5.4
2023-03-16T04:47:22.651Z,5.3
2023-03-16T04:48:22.660Z,5.3
2023-03-16T04:49:22.664Z,5.4
2023-03-16T04:50:22.646Z,5.4
2023-03-16T04:51:22.681Z,5.4
2023-03-16T04:52:22.648Z,5.3
2023-03-16T04:53:23.129Z,5.3
2023-03-16T04:54:22.678Z,5.4
2023-03-16T04:55:22.641Z,5.2
2023-03-16T04:56:22.643Z,5.3
2023-03-16T04:57:22.645Z,5.1
2023-03-16T04:58:22.660Z,5.1
2023-03-16T04:59:22.653Z,5.2
2023-03-16T05:00:22.647Z,5.4
2023-03-16T05:01:22.690Z,5
2023-03-16T05:02:22.647Z,5.1
2023-03-16T05:03:22.650Z,5.2
2023-03-16T05:04:22.646Z,5.1
2023-03-16T05:05:22.788Z,5.3
2023-03-16T05:06:22.656Z,5.4
2023-03-16T05:07:22.655Z,5.6
2023-03-16T05:08:22.651Z,5.9
2023-03-16T05:09:22.640Z,5.7
2023-03-16T05:10:22.650Z,6
2023-03-16T05:11:22.647Z,6
2023-03-16T05:12:22.660Z,5.7
2023-03-16T05:13:22.930Z,5.8
2023-03-16T05:14:22.651Z,5.9
2023-03-16T05:15:22.642Z,6.1
2023-03-16T05:16:22.759Z,5.9
2023-03-16T05:17:22.649Z,5.9
2023-03-16T05:18:22.646Z,6.1
2023-03-16T05:19:22.646Z,6.1
2023-03-16T05:20:22.644Z,5.7
2023-03-16T05:21:22.645Z,5.8
2023-03-16T05:22:22.675Z,5.7
2023-03-16T05:23:22.659Z,5.8
2023-03-16T05:24:22.645Z,5.9
2023-03-16T05:25:22.641Z,6
2023-03-16T05:27:22.647Z,5.9
2023-03-16T05:28:22.646Z,6.1
2023-03-16T05:29:22.651Z,6.3
2023-03-16T05:30:22.656Z,6.4
2023-03-16T05:31:22.701Z,6.3
2023-03-16T05:32:22.656Z,5.9
2023-03-16T05:33:22.634Z,6
2023-03-16T05:34:22.638Z,6
2023-03-16T05:35:24.276Z,5.7
2023-03-16T05:36:22.646Z,5.6
2023-03-16T05:37:22.645Z,5.7
2023-03-16T05:38:22.710Z,5.8
2023-03-16T05:39:22.644Z,5.7
2023-03-16T05:40:22.642Z,5.7
2023-03-16T05:41:22.638Z,5.8
2023-03-16T05:42:22.641Z,5.9
2023-03-16T05:43:22.642Z,5.6
2023-03-16T05:44:22.644Z,5.7
2023-03-16T05:45:22.643Z,5.8
2023-03-16T05:46:22.727Z,5.6
2023-03-16T05:47:22.652Z,5.7
2023-03-16T05:48:22.645Z,5.7
2023-03-16T05:49:22.643Z,5.6
2023-03-16T05:50:22.646Z,5.7
2023-03-16T05:51:22.645Z,5.6
2023-03-16T05:52:22.645Z,5.6
2023-03-16T05:53:22.683Z,5.8
2023-03-16T05:54:22.640Z,5.6
2023-03-16T05:55:22.638Z,5.5
2023-03-16T05:56:22.652Z,5.5
2023-03-16T05:57:22.650Z,5.7
2023-03-16T05:58:22.643Z,5.8
2023-03-16T05:59:22.645Z,5.8
2023-03-16T06:00:22.643Z,5.9
2023-03-16T06:01:22.652Z,5.6
2023-03-16T06:02:23.066Z,5.4
2023-03-16T06:03:16.831Z,5.4
2023-03-16T06:04:22.697Z,5.4
2023-03-16T06:05:22.654Z,5.4
2023-03-16T06:06:22.644Z,5.3
2023-03-16T06:07:22.648Z,5.6
2023-03-16T06:09:22.639Z,5.8
2023-03-16T06:10:22.645Z,5.8
2023-03-16T06:11:22.647Z,5.7
2023-03-16T06:12:22.649Z,5.7
2023-03-16T06:13:22.636Z,5.5
2023-03-16T06:14:22.643Z,5.5
2023-03-16T06:15:22.645Z,5.7
2023-03-16T06:16:22.676Z,5.7
2023-03-16T06:17:22.635Z,5.7
2023-03-16T06:18:22.651Z,5.7
2023-03-16T06:19:22.686Z,5.5
2023-03-16T06:20:22.648Z,5.5
2023-03-16T06:21:22.642Z,5.4
2023-03-16T06:22:22.676Z,5.4
2023-03-16T06:23:22.641Z,5.4
2023-03-16T06:24:22.667Z,5.4
2023-03-16T06:25:22.648Z,5.5
2023-03-16T06:26:22.693Z,5.4
2023-03-16T06:27:22.642Z,5.2
2023-03-16T06:28:22.647Z,5.4
2023-03-16T06:29:22.643Z,5.5
2023-03-16T06:30:22.638Z,5.2
2023-03-16T06:31:22.658Z,5.2
2023-03-16T06:32:22.642Z,5.2
2023-03-16T06:33:23.031Z,5.2
2023-03-16T06:34:22.642Z,5.4
2023-03-16T06:35:22.651Z,5.4
2023-03-16T06:36:22.636Z,5.4
2023-03-16T06:37:22.638Z,5.5
2023-03-16T06:38:22.646Z,5.4
2023-03-16T06:39:22.636Z,5.4
2023-03-16T06:40:22.641Z,5.5
2023-03-16T06:41:22.641Z,5.5
2023-03-16T06:42:22.648Z,5.5
2023-03-16T06:43:22.646Z,5.6
2023-03-16T06:45:22.650Z,5.7
2023-03-16T06:46:22.698Z,5.7
2023-03-16T06:47:22.643Z,5.7
2023-03-16T06:48:22.641Z,5.7
2023-03-16T06:49:22.634Z,5.6
2023-03-16T06:50:22.714Z,5.5
2023-03-16T06:51:22.640Z,5.5
2023-03-16T06:52:22.645Z,5.5
2023-03-16T06:53:22.644Z,5.5
2023-03-16T06:54:22.655Z,5.5
2023-03-16T06:55:22.670Z,5.5
2023-03-16T06:56:22.636Z,5.8
2023-03-16T06:57:22.639Z,5.7
2023-03-16T06:58:22.629Z,5.6
2023-03-16T06:59:22.640Z,5.5
2023-03-16T07:00:22.637Z,5.4
2023-03-16T07:01:22.736Z,5.5
2023-03-16T07:02:22.639Z,5.6
2023-03-16T07:03:22.633Z,5.6
2023-03-16T07:04:22.713Z,5.7
2023-03-16T07:05:22.637Z,5.8
2023-03-16T07:06:22.640Z,5.9
2023-03-16T07:07:22.635Z,5.7
2023-03-16T07:08:22.671Z,5.6
2023-03-16T07:09:22.627Z,5.6
2023-03-16T07:10:22.632Z,5.7
2023-03-16T07:11:22.653Z,5.6
2023-03-16T07:12:22.634Z,5.7
2023-03-16T07:13:22.637Z,5.8
2023-03-16T07:14:22.628Z,5.9
2023-03-16T07:15:22.634Z,6
2023-03-16T07:16:22.655Z,6.3
2023-03-16T07:17:22.629Z,6.5
2023-03-16T07:18:22.629Z,6.6
2023-03-16T07:19:22.626Z,6.4
2023-03-16T07:20:23.737Z,6.6
2023-03-16T07:21:22.659Z,6.6
2023-03-16T07:22:22.770Z,6.8
2023-03-16T07:23:22.634Z,6.9
2023-03-16T07:24:22.644Z,6.9
2023-03-16T07:25:22.631Z,7
2023-03-16T07:26:22.670Z,7
2023-03-16T07:27:22.755Z,6.9
2023-03-16T07:28:22.627Z,6.8
2023-03-16T07:29:22.628Z,6.7
2023-03-16T07:30:22.643Z,6.5
2023-03-16T07:31:22.726Z,6.4
2023-03-16T07:32:22.681Z,6.3
2023-03-16T07:33:22.640Z,6.2
2023-03-16T07:34:22.628Z,6.1
2023-03-16T07:35:22.626Z,6.2
2023-03-16T07:36:22.630Z,6.3
2023-03-16T07:37:25.952Z,6.2
2023-03-16T07:38:22.630Z,6
2023-03-16T07:39:22.629Z,6.2
2023-03-16T07:40:22.631Z,6.1
2023-03-16T07:41:22.627Z,6.1
2023-03-16T07:42:22.670Z,6.2
2023-03-16T07:43:22.623Z,6.3
2023-03-16T07:44:22.629Z,6.4
2023-03-16T07:45:22.632Z,6.5
2023-03-16T07:46:22.690Z,6.5
2023-03-16T07:47:25.963Z,6.5
2023-03-16T07:48:22.643Z,6.4
2023-03-16T07:49:22.626Z,6.3
2023-03-16T07:50:22.625Z,6.5
2023-03-16T07:51:22.631Z,6.7
2023-03-16T07:52:22.623Z,6.8
2023-03-16T07:53:22.638Z,6.6
2023-03-16T07:54:22.645Z,6.5
2023-03-16T07:55:22.626Z,6.6
2023-03-16T07:56:22.624Z,6.7
2023-03-16T07:57:22.655Z,7
2023-03-16T07:58:22.626Z,6.9
2023-03-16T07:59:22.631Z,7
2023-03-16T08:00:22.624Z,6.9
2023-03-16T08:01:22.628Z,7
2023-03-16T08:02:22.698Z,6.7
2023-03-16T08:03:22.697Z,6.7
2023-03-16T08:04:22.628Z,6.8
2023-03-16T08:05:22.623Z,6.7
2023-03-16T08:06:22.632Z,7
2023-03-16T08:07:22.630Z,7
2023-03-16T08:08:22.711Z,7.3
2023-03-16T08:09:22.643Z,7.3
2023-03-16T08:10:22.640Z,7.3
2023-03-16T08:11:22.626Z,7.2
2023-03-16T08:12:22.644Z,6.9
2023-03-16T08:13:22.616Z,6.8
2023-03-16T08:14:22.624Z,6.7
2023-03-16T08:15:22.627Z,6.6
2023-03-16T08:17:22.689Z,6.9
2023-03-16T08:18:22.631Z,6.8
2023-03-16T08:19:22.673Z,6.7
2023-03-16T08:20:22.625Z,6.7
2023-03-16T08:21:22.629Z,6.7
2023-03-16T08:22:22.631Z,6.7
2023-03-16T08:23:22.651Z,6.7
2023-03-16T08:24:22.635Z,6.5
2023-03-16T08:25:22.626Z,6.6
2023-03-16T08:26:22.626Z,6.6
2023-03-16T08:27:22.643Z,6.6
2023-03-16T08:28:22.654Z,6.7
2023-03-16T08:29:22.654Z,6.7
2023-03-16T08:30:22.624Z,6.6
2023-03-16T08:31:22.687Z,6.6
2023-03-16T08:32:22.621Z,6.6
2023-03-16T08:33:23.458Z,6.8
2023-03-16T08:34:22.630Z,6.8
2023-03-16T08:35:22.638Z,6.7
2023-03-16T08:36:22.618Z,6.8
2023-03-16T08:37:22.629Z,6.6
2023-03-16T08:38:22.629Z,6.5
2023-03-16T08:39:22.657Z,6.5
2023-03-16T08:40:22.688Z,6.4
2023-03-16T08:41:22.628Z,6.3
2023-03-16T08:42:22.636Z,6.4
2023-03-16T08:43:22.618Z,6.5
2023-03-16T08:44:22.627Z,6.6
2023-03-16T08:45:22.627Z,6.3
2023-03-16T08:46:22.659Z,6.4
2023-03-16T08:47:22.619Z,6.4
2023-03-16T08:48:22.622Z,6.4
2023-03-16T08:49:22.621Z,6.4
2023-03-16T08:50:22.643Z,6.5
2023-03-16T08:51:22.616Z,6.4
2023-03-16T08:52:23.088Z,6.4
2023-03-16T08:53:22.617Z,6.4
2023-03-16T08:54:22.619Z,6.3
2023-03-16T08:55:22.619Z,6.2
2023-03-16T08:56:22.628Z,6.4
2023-03-16T08:57:22.635Z,6.3
2023-03-16T08:58:22.620Z,6.4
2023-03-16T08:59:29.815Z,6.2
2023-03-16T09:00:22.633Z,6.3
2023-03-16T09:01:22.697Z,6.4
2023-03-16T09:02:22.616Z,6.4
2023-03-16T09:03:22.622Z,6.4
2023-03-16T09:04:22.746Z,6.4
2023-03-16T09:05:22.612Z,6.4
2023-03-16T09:06:22.613Z,6.7
2023-03-16T09:07:22.614Z,6.8
2023-03-16T09:08:22.614Z,6.6
2023-03-16T09:09:22.613Z,6.7
2023-03-16T09:10:22.611Z,6.8
2023-03-16T09:11:22.625Z,6.7
2023-03-16T09:12:22.611Z,6.8
2023-03-16T09:13:22.619Z,6.7
2023-03-16T09:14:22.618Z,6.6
2023-03-16T09:15:22.624Z,6.6
2023-03-16T09:16:22.677Z,6.6
2023-03-16T09:17:22.626Z,6.8
2023-03-16T09:18:22.635Z,6.9
2023-03-16T09:19:22.628Z,6.7
2023-03-16T09:20:26.687Z,6.6
2023-03-16T09:21:22.712Z,6.7
2023-03-16T09:22:22.611Z,6.6
2023-03-16T09:23:22.609Z,6.7
2023-03-16T09:24:22.719Z,6.9
2023-03-16T09:25:22.614Z,6.8
2023-03-16T09:26:22.713Z,6.9
2023-03-16T09:27:22.812Z,6.9
2023-03-16T09:28:22.671Z,6.9
2023-03-16T09:29:22.614Z,7.2
2023-03-16T09:30:22.671Z,7.1
2023-03-16T09:31:22.759Z,7.1
2023-03-16T09:32:22.646Z,7.1
2023-03-16T09:33:22.684Z,7.4
2023-03-16T09:34:22.610Z,7.4
2023-03-16T09:35:22.615Z,7.4
2023-03-16T09:36:22.610Z,7.6
2023-03-16T09:37:22.620Z,7.7
2023-03-16T09:38:22.622Z,7.9
2023-03-16T09:39:22.611Z,7.7
2023-03-16T09:40:22.668Z,7.9
2023-03-16T09:41:22.617Z,7.6
2023-03-16T09:42:22.618Z,7.7
2023-03-16T09:43:22.608Z,8
2023-03-16T09:44:22.647Z,7.5
2023-03-16T09:45:22.604Z,7.6
2023-03-16T09:46:22.755Z,7.7
2023-03-16T09:47:22.613Z,7.7
2023-03-16T09:48:22.608Z,7.7
2023-03-16T09:49:22.617Z,7.8
2023-03-16T09:50:22.681Z,8
2023-03-16T09:51:22.663Z,8
2023-03-16T09:52:22.616Z,8.2
2023-03-16T09:53:22.694Z,8.3
2023-03-16T09:54:22.615Z,8.4
2023-03-16T09:55:22.608Z,8.3
2023-03-16T09:56:22.618Z,8.1
2023-03-16T09:57:22.608Z,7.9
2023-03-16T09:58:22.618Z,7.9
2023-03-16T09:59:22.618Z,8
2023-03-16T10:00:22.649Z,8.1
2023-03-16T10:01:22.711Z,8.2
2023-03-16T10:02:22.624Z,8.1
2023-03-16T10:03:22.614Z,8.2
2023-03-16T10:04:22.651Z,8.4
2023-03-16T10:05:22.608Z,8.2
2023-03-16T10:06:22.717Z,8
2023-03-16T10:07:22.665Z,8.1
2023-03-16T10:08:22.613Z,8.1
2023-03-16T10:09:22.618Z,8.2
2023-03-16T10:10:22.738Z,8.2
2023-03-16T10:11:22.694Z,8.3
2023-03-16T10:12:22.606Z,8.5
2023-03-16T10:13:22.624Z,8.4
2023-03-16T10:14:22.613Z,8.2
2023-03-16T10:15:22.662Z,8.1
2023-03-16T10:16:22.742Z,8
2023-03-16T10:17:22.605Z,8
2023-03-16T10:18:22.621Z,7.7
2023-03-16T10:19:22.619Z,7.6
2023-03-16T10:20:22.710Z,7.6
2023-03-16T10:21:22.839Z,7.7
2023-03-16T10:22:22.616Z,8
2023-03-16T10:23:22.632Z,8.1
2023-03-16T10:24:22.611Z,8
2023-03-16T10:25:22.695Z,8.2
2023-03-16T10:26:22.614Z,8.2
2023-03-16T10:27:22.609Z,8.2
2023-03-16T10:28:22.757Z,8.2
2023-03-16T10:29:22.606Z,8.2
2023-03-16T10:30:22.699Z,8.2
2023-03-16T10:31:22.699Z,8.3
2023-03-16T10:32:22.640Z,8.4
2023-03-16T10:33:22.611Z,8.2
2023-03-16T10:34:22.630Z,7.8
2023-03-16T10:35:22.659Z,7.7
2023-03-16T10:36:22.642Z,7.7
2023-03-16T10:37:22.614Z,7.9
2023-03-16T10:38:22.613Z,8.1
2023-03-16T10:39:22.616Z,8.1
2023-03-16T10:40:22.628Z,8.2
2023-03-16T10:41:22.871Z,8.2
2023-03-16T10:42:22.611Z,8.2
2023-03-16T10:43:22.625Z,8.1
2023-03-16T10:44:22.606Z,8
2023-03-16T10:45:22.813Z,8
2023-03-16T10:46:22.737Z,8.1
2023-03-16T10:47:22.692Z,8.1
2023-03-16T10:48:22.662Z,8.2
2023-03-16T10:49:22.619Z,8.2
2023-03-16T10:50:22.614Z,8.3
2023-03-16T10:51:22.634Z,8.2
2023-03-16T10:52:22.619Z,8.1
2023-03-16T10:53:22.613Z,7.9
2023-03-16T10:54:22.624Z,8
2023-03-16T10:55:22.621Z,8
2023-03-16T10:56:22.687Z,8.2
2023-03-16T10:57:22.646Z,8.2
2023-03-16T10:58:22.613Z,8
2023-03-16T10:59:22.620Z,8.2
2023-03-16T11:00:22.633Z,8.2
2023-03-16T11:01:22.639Z,8.4
2023-03-16T11:02:22.622Z,8.6
2023-03-16T11:03:22.696Z,8.5
2023-03-16T11:04:23.050Z,8.5
2023-03-16T11:05:22.609Z,8.5
2023-03-16T11:06:22.613Z,8.7
2023-03-16T11:07:22.615Z,9
2023-03-16T11:08:22.622Z,9.1
2023-03-16T11:09:22.619Z,9.1
2023-03-16T11:10:22.613Z,9.2
2023-03-16T11:11:22.610Z,9.1
2023-03-16T11:12:22.653Z,9.3
2023-03-16T11:13:22.709Z,9.6
2023-03-16T11:14:22.669Z,9.7
2023-03-16T11:15:26.139Z,9.6
2023-03-16T11:16:22.649Z,9.3
2023-03-16T11:17:22.746Z,9.4
2023-03-16T11:18:22.611Z,9.3
2023-03-16T11:19:22.618Z,9.4
2023-03-16T11:20:22.665Z,9.6
2023-03-16T11:21:22.614Z,9.8
2023-03-16T11:22:22.614Z,9.7
2023-03-16T11:23:22.614Z,9.7
2023-03-16T11:24:22.621Z,9.8
2023-03-16T11:25:22.617Z,10.1
2023-03-16T11:26:22.628Z,10.2
2023-03-16T11:27:22.617Z,10.5
2023-03-16T11:28:22.618Z,10.8
2023-03-16T11:29:22.612Z,11
2023-03-16T11:30:22.620Z,10.8
2023-03-16T11:31:22.639Z,10.8
2023-03-16T11:32:22.612Z,10.9
2023-03-16T11:33:22.612Z,10.9
2023-03-16T11:34:22.643Z,10.7
2023-03-16T11:35:22.620Z,10.8
2023-03-16T11:36:22.650Z,10.8
2023-03-16T11:37:22.614Z,11
2023-03-16T11:38:22.614Z,11.1
2023-03-16T11:39:22.618Z,11.3
2023-03-16T11:40:22.622Z,11.3
2023-03-16T11:41:22.613Z,11.2
2023-03-16T11:42:22.610Z,11
2023-03-16T11:43:22.614Z,11
2023-03-16T11:44:22.618Z,11.2
2023-03-16T11:45:22.872Z,11.5
2023-03-16T11:46:22.745Z,11.4
2023-03-16T11:47:22.613Z,11.3
2023-03-16T11:48:22.623Z,11.2
2023-03-16T11:49:22.617Z,11.4
2023-03-16T11:50:22.630Z,11.6
2023-03-16T11:51:22.612Z,12
2023-03-16T11:52:22.612Z,12.1
2023-03-16T11:53:22.617Z,11.8
2023-03-16T11:54:22.609Z,11.8
2023-03-16T11:55:22.613Z,11.6
2023-03-16T11:56:22.609Z,11.6
2023-03-16T11:57:22.613Z,11.7
2023-03-16T11:58:22.606Z,11.8
2023-03-16T11:59:22.620Z,11.7
2023-03-16T12:00:22.602Z,11.6
2023-03-16T12:01:22.685Z,11.8
2023-03-16T12:02:22.760Z,12
2023-03-16T12:03:22.625Z,12.1
2023-03-16T12:04:22.765Z,12
2023-03-16T12:05:22.655Z,12
2023-03-16T12:06:23.791Z,12.1
2023-03-16T12:07:22.606Z,12
2023-03-16T12:08:22.598Z,12.1
2023-03-16T12:09:22.610Z,12.2
2023-03-16T12:10:22.646Z,12
2023-03-16T12:11:22.615Z,12.2
2023-03-16T12:12:22.607Z,12.4
2023-03-16T12:13:22.845Z,12.3
2023-03-16T12:14:22.611Z,12.1
2023-03-16T12:15:22.605Z,12
2023-03-16T12:16:22.788Z,11.8
2023-03-16T12:17:22.606Z,11.9
2023-03-16T12:18:22.611Z,11.7
2023-03-16T12:19:22.603Z,11.6
2023-03-16T12:20:22.610Z,11.3
2023-03-16T12:21:22.606Z,11.2
2023-03-16T12:22:22.609Z,11.1
2023-03-16T12:23:22.616Z,11.1
2023-03-16T12:24:23.126Z,11.1
2023-03-16T12:25:22.599Z,11.1
2023-03-16T12:26:22.608Z,11.1
2023-03-16T12:27:22.613Z,11.2
2023-03-16T12:28:22.615Z,11.4
2023-03-16T12:29:22.646Z,11.6
2023-03-16T12:30:22.597Z,11.6
2023-03-16T12:31:22.706Z,11.4
2023-03-16T12:32:22.603Z,11.4
2023-03-16T12:33:22.603Z,11.1
2023-03-16T12:35:22.605Z,11.3
2023-03-16T12:36:22.642Z,11.3
2023-03-16T12:37:22.632Z,11.4
2023-03-16T12:38:22.628Z,11.2
2023-03-16T12:39:22.598Z,11.1
2023-03-16T12:40:22.607Z,11.2
2023-03-16T12:41:22.600Z,11.3
2023-03-16T12:42:22.600Z,11.4
2023-03-16T12:43:22.597Z,11.4
2023-03-16T12:44:22.674Z,11.3
2023-03-16T12:45:22.612Z,11.2
2023-03-16T12:46:22.688Z,11.2
2023-03-16T12:47:22.600Z,11.6
2023-03-16T12:48:22.599Z,11.7
2023-03-16T12:49:22.596Z,11.4
2023-03-16T12:50:22.612Z,11.6
2023-03-16T12:51:22.601Z,11.8
2023-03-16T12:52:22.615Z,11.6
2023-03-16T12:53:22.603Z,11.5
2023-03-16T12:54:22.614Z,11.5
2023-03-16T12:55:22.599Z,11.4
2023-03-16T12:56:22.620Z,11.4
2023-03-16T12:57:22.605Z,11.5
2023-03-16T12:58:22.609Z,11.2
2023-03-16T12:59:22.625Z,11.1
2023-03-16T13:00:22.630Z,11.1
2023-03-16T13:01:22.632Z,11.3
2023-03-16T13:02:22.608Z,11.5
2023-03-16T13:03:22.601Z,11.6
2023-03-16T13:04:22.737Z,11.8
2023-03-16T13:05:22.610Z,11.7
2023-03-16T13:06:22.705Z,11.6
2023-03-16T13:07:22.669Z,11.6
2023-03-16T13:08:22.624Z,11.7
2023-03-16T13:09:22.604Z,11.9
2023-03-16T13:10:22.607Z,11.8
2023-03-16T13:11:22.615Z,11.8
2023-03-16T13:12:22.606Z,11.7
2023-03-16T13:13:22.613Z,11.7
2023-03-16T13:14:22.609Z,11.6
2023-03-16T13:15:22.608Z,11.7
2023-03-16T13:16:22.646Z,11.7
2023-03-16T13:17:22.806Z,11.6
2023-03-16T13:18:22.616Z,11.7
2023-03-16T13:19:22.612Z,11.7
2023-03-16T13:20:30.377Z,11.5
2023-03-16T13:21:22.606Z,11.4
2023-03-16T13:22:22.613Z,11.3
2023-03-16T13:23:22.605Z,11.5
2023-03-16T13:25:22.648Z,12.2
2023-03-16T13:26:22.659Z,12.2
2023-03-16T13:27:22.628Z,12
2023-03-16T13:28:22.615Z,12.2
2023-03-16T13:29:22.602Z,12.3
2023-03-16T13:30:22.698Z,12.2
2023-03-16T13:31:22.659Z,12.1
2023-03-16T13:32:22.611Z,11.9
2023-03-16T13:33:22.608Z,11.9
2023-03-16T13:34:22.621Z,11.8
2023-03-16T13:35:22.610Z,12
2023-03-16T13:36:22.608Z,11.9
2023-03-16T13:37:22.613Z,12.1
2023-03-16T13:38:22.661Z,12.1
2023-03-16T13:39:22.613Z,11.9
2023-03-16T13:40:22.622Z,11.9
2023-03-16T13:41:22.618Z,11.7
2023-03-16T13:42:22.606Z,11.7
2023-03-16T13:43:22.612Z,11.9
2023-03-16T13:44:22.607Z,12.2
2023-03-16T13:45:22.600Z,12.3
2023-03-16T13:46:22.794Z,11.9
2023-03-16T13:47:22.616Z,12.1
2023-03-16T13:48:22.607Z,12.1
2023-03-16T13:49:22.608Z,12.1
2023-03-16T13:50:22.619Z,12.3
2023-03-16T13:51:22.724Z,12.6
2023-03-16T13:52:22.625Z,12.6
2023-03-16T13:53:22.619Z,12.8
2023-03-16T13:54:22.609Z,12.9
2023-03-16T13:55:22.609Z,13